Time;durP1;ratioP1;P1;durP2;ratioP2;P2;SDS_P1;SDS_P2;PMS_P1;PMS_P2;Temp;Humidity;BMP_temperature;BMP_pressure;BME280_temperature;BME280_humidity;BME280_pressure;Samples;Min_cycle;Max_cycle;Signal;HPM_P1;HPM_P2
2022/11/01 00:00:00;;;;;;;11.93;7.18;;;;;;;11.48;67.79;100050.88;4914603;29;20028;-93
2022/11/01 00:02:26;;;;;;;12.98;7.75;;;;;;;11.45;67.73;100062.16;4915867;29;20028;-95
2022/11/01 00:08:14;;;;;;;10.23;7.20;;;;;;;11.37;68.19;100046.47;4950091;29;20067;-95
2022/11/01 00:10:40;;;;;;;13.20;7.57;;;;;;;11.24;68.28;100042.31;4932399;29;20040;-94
2022/11/01 00:13:07;;;;;;;12.43;7.43;;;;;;;11.25;68.54;100041.25;4933084;29;20035;-94
2022/11/01 00:15:37;;;;;;;18.75;7.65;;;;;;;11.12;68.18;100046.00;4917197;29;20553;-96
2022/11/01 00:18:06;;;;;;;11.05;7.28;;;;;;;11.01;68.81;100055.03;4949172;29;20030;-94
2022/11/01 00:20:45;;;;;;;11.10;6.95;;;;;;;10.94;68.92;100043.66;4933139;29;20066;-95
2022/11/01 00:23:13;;;;;;;15.15;8.02;;;;;;;10.87;69.04;100046.56;4948198;29;20039;-95
2022/11/01 00:25:40;;;;;;;11.32;7.88;;;;;;;10.76;69.28;100041.31;4933178;29;20110;-94
2022/11/01 00:28:06;;;;;;;14.07;7.00;;;;;;;10.80;69.43;100048.63;4916620;29;20026;-94
2022/11/01 00:30:40;;;;;;;11.13;7.53;;;;;;;10.85;69.32;100064.84;4919520;29;20056;-95
2022/11/01 00:33:08;;;;;;;12.57;7.55;;;;;;;10.71;69.21;100029.41;4953193;29;20024;-96
2022/11/01 00:35:36;;;;;;;13.18;7.30;;;;;;;10.86;69.40;100061.09;4906971;29;20019;-95
2022/11/01 00:38:02;;;;;;;13.23;8.13;;;;;;;10.84;69.25;100047.06;4901090;29;20409;-95
2022/11/01 00:40:28;;;;;;;14.63;7.40;;;;;;;10.78;69.50;100050.75;4906907;29;20042;-94
2022/11/01 00:42:53;;;;;;;15.32;7.60;;;;;;;10.70;70.03;100043.13;4907861;29;20474;-95
2022/11/01 00:45:19;;;;;;;13.30;7.90;;;;;;;10.60;69.82;100048.38;4923092;29;20064;-94
2022/11/01 00:47:48;;;;;;;13.07;8.43;;;;;;;10.59;70.42;100052.16;4907004;29;20115;-93
2022/11/01 00:50:13;;;;;;;14.27;7.53;;;;;;;10.49;70.45;100039.38;4892494;29;20024;-92
2022/11/01 00:52:39;;;;;;;12.57;7.38;;;;;;;10.59;70.04;100044.91;4907565;29;20039;-93
2022/11/01 00:55:05;;;;;;;12.13;7.43;;;;;;;10.71;70.25;100059.03;4939069;29;20406;-92
2022/11/01 00:57:30;;;;;;;10.85;7.47;;;;;;;10.74;69.83;100041.56;4906924;29;20493;-93
2022/11/01 00:59:56;;;;;;;13.38;7.05;;;;;;;10.75;69.53;100026.19;4926224;29;20027;-93
2022/11/01 01:02:21;;;;;;;11.05;6.70;;;;;;;10.89;69.48;100038.19;4907622;29;20047;-93
2022/11/01 01:04:49;;;;;;;13.02;6.93;;;;;;;10.82;69.50;100034.91;4902300;29;20035;-92
2022/11/01 01:07:15;;;;;;;11.70;7.28;;;;;;;10.60;70.29;100032.22;4892483;29;20479;-93
2022/11/01 01:09:40;;;;;;;15.48;7.78;;;;;;;10.55;70.92;100040.28;4907128;29;20035;-93
2022/11/01 01:12:08;;;;;;;11.80;7.47;;;;;;;10.56;70.31;100040.00;4922735;29;20038;-93
2022/11/01 01:14:34;;;;;;;14.70;8.05;;;;;;;10.41;70.94;100029.06;4907538;29;20031;-94
2022/11/01 01:17:00;;;;;;;14.82;8.05;;;;;;;10.36;71.37;100040.59;4907106;29;20040;-94
2022/11/01 01:19:27;;;;;;;11.93;6.80;;;;;;;10.10;71.71;100025.94;4922756;29;20660;-93
2022/11/01 01:21:52;;;;;;;9.63;6.85;;;;;;;10.12;71.45;100021.13;4922868;29;20028;-93
2022/11/01 01:24:18;;;;;;;11.90;6.55;;;;;;;10.10;71.75;100025.94;4907038;29;20024;-93
2022/11/01 01:26:43;;;;;;;11.20;6.80;;;;;;;10.03;71.42;100020.75;4906577;29;20063;-94
2022/11/01 01:29:09;;;;;;;9.73;5.72;;;;;;;9.94;72.38;100021.41;4906709;29;20036;-94
2022/11/01 01:31:34;;;;;;;11.30;6.45;;;;;;;9.93;72.27;100034.06;4913924;29;20467;-94
2022/11/01 01:34:00;;;;;;;8.65;6.32;;;;;;;9.91;73.18;100036.19;4902857;29;20051;-93
2022/11/01 01:36:25;;;;;;;9.48;6.05;;;;;;;10.00;72.11;100029.34;4906064;29;20399;-93
2022/11/01 01:38:51;;;;;;;9.57;6.10;;;;;;;10.03;72.02;100018.06;4904699;29;20031;-94
2022/11/01 01:44:24;;;;;;;13.40;6.40;;;;;;;9.98;72.63;100020.69;4925510;29;20046;-93
2022/11/01 01:46:49;;;;;;;12.57;6.43;;;;;;;10.02;72.35;100031.75;4938109;29;20035;-94
2022/11/01 01:49:15;;;;;;;11.00;6.60;;;;;;;9.87;72.92;100035.84;4932464;29;20035;-94
2022/11/01 01:51:40;;;;;;;10.15;6.32;;;;;;;9.94;72.67;100051.00;4905184;29;20467;-93
2022/11/01 01:54:06;;;;;;;12.70;6.82;;;;;;;9.83;72.95;100037.41;4921525;29;20020;-94
2022/11/01 01:56:34;;;;;;;10.63;6.90;;;;;;;9.85;72.53;100039.88;4922419;29;20459;-93
2022/11/01 01:59:04;;;;;;;15.85;7.28;;;;;;;9.89;72.79;100049.06;4905690;29;20035;-93
2022/11/01 02:01:30;;;;;;;10.20;6.32;;;;;;;9.61;72.33;100033.88;4922673;29;20027;-94
2022/11/01 02:03:55;;;;;;;13.38;6.82;;;;;;;9.45;73.17;100033.63;4938449;29;20090;-93
2022/11/01 02:06:21;;;;;;;12.32;7.72;;;;;;;9.47;73.23;100036.06;4922270;29;20375;-94
2022/11/01 02:08:49;;;;;;;12.13;7.05;;;;;;;9.31;73.79;100032.31;4922621;29;20039;-93
2022/11/01 02:11:14;;;;;;;12.15;7.35;;;;;;;9.25;73.89;100026.03;4891563;29;20474;-92
2022/11/01 02:13:40;;;;;;;10.30;7.15;;;;;;;9.30;74.08;100033.38;4904712;29;20067;-93
2022/11/01 02:16:18;;;;;;;16.33;7.30;;;;;;;9.42;73.74;100061.00;4922289;29;20099;-93
2022/11/01 02:19:18;;;;;;;13.88;7.43;;;;;;;9.35;74.60;100054.16;4938230;29;20035;-91
2022/11/01 02:21:59;;;;;;;10.98;6.97;;;;;;;9.36;74.62;100053.06;4919856;29;20387;-92
2022/11/01 02:24:47;;;;;;;13.07;8.05;;;;;;;9.30;75.11;100068.31;4930760;29;20035;-93
2022/11/01 02:27:15;;;;;;;18.83;8.00;;;;;;;9.27;74.48;100047.28;4936749;29;20054;-92
2022/11/01 02:29:40;;;;;;;14.52;7.88;;;;;;;9.45;74.20;100070.44;4921270;29;20031;-92
2022/11/01 02:33:04;;;;;;;13.77;8.32;;;;;;;9.31;74.59;100043.88;4950581;29;20114;-92
2022/11/01 02:35:37;;;;;;;15.43;8.27;;;;;;;9.55;73.46;100061.75;4908547;29;20046;-91
2022/11/01 02:38:19;;;;;;;11.98;7.53;;;;;;;9.30;74.20;100041.44;4939530;29;20035;-93
2022/11/01 02:41:02;;;;;;;13.03;7.83;;;;;;;9.30;73.52;100038.75;4925477;29;20034;-93
2022/11/01 02:43:51;;;;;;;13.45;7.97;;;;;;;9.41;73.78;100058.56;4912321;29;20031;-93
2022/11/01 02:49:00;;;;;;;21.88;7.28;;;;;;;9.24;73.29;100055.84;4927457;29;20062;-92
2022/11/01 02:51:26;;;;;;;11.10;7.00;;;;;;;9.26;73.16;100059.94;4892488;29;20035;-92
2022/11/01 02:53:51;;;;;;;11.50;7.10;;;;;;;9.08;73.43;100058.25;4904266;29;20028;-92
2022/11/01 02:56:17;;;;;;;13.13;7.40;;;;;;;9.17;73.38;100061.38;4907167;29;20489;-92
2022/11/01 02:58:42;;;;;;;11.07;6.72;;;;;;;9.20;73.03;100052.84;4919048;29;20023;-92
2022/11/01 03:01:14;;;;;;;10.73;6.85;;;;;;;9.27;72.95;100058.03;4899652;29;20027;-92
2022/11/01 03:03:40;;;;;;;10.00;6.93;;;;;;;9.46;72.46;100066.69;4908262;29;20019;-91
2022/11/01 03:06:07;;;;;;;11.82;6.85;;;;;;;9.69;72.23;100084.53;4907200;29;20031;-92
2022/11/01 03:08:36;;;;;;;10.88;7.50;;;;;;;9.71;71.86;100077.88;4941646;29;20031;-95
2022/11/01 03:11:18;;;;;;;11.43;6.45;;;;;;;9.61;71.77;100087.66;4956365;29;20031;-94
2022/11/01 03:14:12;;;;;;;12.07;6.72;;;;;;;9.55;72.42;100080.56;4926454;29;20189;-96
2022/11/01 03:16:47;;;;;;;11.43;7.05;;;;;;;9.35;72.02;100054.97;4930752;29;20038;-95
2022/11/01 03:19:25;;;;;;;11.38;7.22;;;;;;;9.42;72.36;100087.03;4909379;29;20091;-95
2022/11/01 03:21:59;;;;;;;10.75;6.72;;;;;;;9.25;71.49;100071.72;4939848;29;20038;-95
2022/11/01 03:24:31;;;;;;;13.50;6.43;;;;;;;9.20;72.11;100074.31;4925559;29;20027;-94
2022/11/01 03:27:36;;;;;;;15.02;6.80;;;;;;;9.31;72.42;100078.00;4908199;29;20566;-95
2022/11/01 03:30:05;;;;;;;12.85;6.82;;;;;;;9.24;72.35;100077.34;4940161;29;20035;-94
2022/11/01 03:32:34;;;;;;;16.25;7.47;;;;;;;9.13;72.33;100075.53;4903250;29;20115;-94
2022/11/01 03:35:00;;;;;;;14.23;7.13;;;;;;;9.07;72.49;100075.44;4908777;29;20387;-95
2022/11/01 03:37:34;;;;;;;14.43;6.75;;;;;;;8.99;72.68;100072.34;4923468;29;20086;-95
2022/11/01 03:40:01;;;;;;;12.73;7.32;;;;;;;8.89;72.67;100060.34;4918590;29;20042;-94
2022/11/01 03:42:39;;;;;;;12.52;7.32;;;;;;;8.94;72.66;100064.97;4923015;29;20023;-95
2022/11/01 03:45:07;;;;;;;14.38;7.53;;;;;;;8.84;72.63;100062.94;4923849;29;20482;-95
2022/11/01 03:47:36;;;;;;;11.88;7.88;;;;;;;8.92;73.05;100085.88;4907037;29;20034;-92
2022/11/01 03:50:24;;;;;;;13.13;8.38;;;;;;;8.76;73.52;100078.59;4918391;29;20062;-92
2022/11/01 03:52:51;;;;;;;14.90;8.18;;;;;;;8.66;73.38;100080.03;4915012;29;20146;-92
2022/11/01 03:55:18;;;;;;;15.95;8.73;;;;;;;8.80;73.18;100095.84;4912107;29;20494;-91
2022/11/01 03:57:47;;;;;;;14.77;8.52;;;;;;;8.76;74.25;100100.06;4922375;29;20027;-92
2022/11/01 04:00:18;;;;;;;19.05;9.32;;;;;;;8.66;74.14;100082.72;4937364;29;20489;-92
2022/11/01 04:02:43;;;;;;;19.80;9.65;;;;;;;8.68;73.66;100091.34;4901105;29;20039;-91
2022/11/01 04:05:10;;;;;;;19.30;11.10;;;;;;;8.72;73.75;100098.94;4951309;29;20544;-92
2022/11/01 04:07:35;;;;;;;18.13;9.40;;;;;;;8.63;74.13;100079.69;4906897;29;20039;-94
2022/11/01 04:10:01;;;;;;;12.57;8.38;;;;;;;8.48;74.06;100072.97;4923348;29;20054;-92
2022/11/01 04:12:26;;;;;;;23.25;9.60;;;;;;;8.35;74.12;100058.97;4922801;29;20117;-92
2022/11/01 04:20:32;;;;;;;15.45;8.30;;;;;;;8.51;74.59;100077.06;4928956;29;20087;-92
2022/11/01 04:23:07;;;;;;;16.63;9.00;;;;;;;8.51;74.01;100079.75;4923874;29;20030;-92
2022/11/01 04:25:33;;;;;;;14.18;8.32;;;;;;;8.39;73.97;100062.81;4907901;29;20478;-93
2022/11/01 04:27:58;;;;;;;19.30;9.55;;;;;;;8.40;74.28;100067.94;4922889;29;20035;-93
2022/11/01 04:30:25;;;;;;;15.27;8.55;;;;;;;8.48;74.15;100078.31;4922813;29;20031;-93
2022/11/01 04:32:53;;;;;;;15.32;8.15;;;;;;;8.48;73.61;100053.38;4907198;29;20035;-94
2022/11/01 04:35:19;;;;;;;15.77;8.20;;;;;;;8.46;74.00;100068.88;4922894;29;20101;-96
2022/11/01 04:37:44;;;;;;;18.27;8.27;;;;;;;8.43;74.00;100070.19;4922458;29;20039;-93
2022/11/01 04:40:12;;;;;;;13.40;8.52;;;;;;;8.47;74.03;100079.41;4923348;29;20075;-93
2022/11/01 04:42:37;;;;;;;16.05;8.10;;;;;;;8.33;73.46;100063.75;4907316;29;20054;-95
2022/11/01 04:45:03;;;;;;;14.48;7.72;;;;;;;8.26;73.87;100075.44;4922660;29;20032;-92
2022/11/01 04:47:29;;;;;;;12.73;8.15;;;;;;;8.22;73.96;100074.28;4938719;29;20038;-92
2022/11/01 04:49:54;;;;;;;16.25;7.97;;;;;;;8.24;74.13;100069.50;4922181;29;20035;-93
2022/11/01 04:52:20;;;;;;;13.70;7.95;;;;;;;8.26;74.46;100074.63;4922458;29;20042;-92
2022/11/01 04:54:45;;;;;;;20.98;8.30;;;;;;;8.35;73.92;100069.72;4922514;29;20118;-94
2022/11/01 04:57:23;;;;;;;13.25;7.95;;;;;;;8.25;73.90;100067.63;4922592;29;20075;-93
2022/11/01 04:59:52;;;;;;;14.52;8.77;;;;;;;8.27;74.60;100087.78;4920562;29;20027;-93
2022/11/01 05:02:18;;;;;;;12.98;7.43;;;;;;;8.27;74.09;100070.88;4904214;29;20051;-93
2022/11/01 05:04:44;;;;;;;20.80;9.23;;;;;;;8.28;74.75;100089.44;4919164;29;20027;-92
2022/11/01 05:07:10;;;;;;;15.30;8.75;;;;;;;8.26;74.17;100077.31;4903697;29;20031;-93
2022/11/01 05:09:35;;;;;;;12.02;8.07;;;;;;;8.28;74.36;100078.69;4918756;29;20095;-93
2022/11/01 05:12:01;;;;;;;21.58;8.68;;;;;;;8.33;74.61;100093.28;4918920;29;20032;-92
2022/11/01 05:14:26;;;;;;;108.07;15.65;;;;;;;8.50;74.28;100096.88;4920939;28;20458;-94
2022/11/01 05:16:54;;;;;;;16.58;9.50;;;;;;;8.50;74.00;100094.19;4908525;29;20122;-93
2022/11/01 05:19:23;;;;;;;81.25;13.82;;;;;;;8.66;73.95;100093.47;4924001;29;20035;-94
2022/11/01 05:21:49;;;;;;;13.60;8.77;;;;;;;8.49;73.61;100087.22;4907673;29;20118;-92
2022/11/01 05:24:14;;;;;;;18.52;9.50;;;;;;;8.66;74.15;100101.50;4922805;29;20099;-93
2022/11/01 05:26:40;;;;;;;15.57;9.88;;;;;;;8.69;74.34;100105.59;4923130;29;20031;-94
2022/11/01 05:29:05;;;;;;;12.40;8.70;;;;;;;8.76;73.93;100105.44;4907202;29;20036;-94
2022/11/01 05:31:33;;;;;;;20.55;10.05;;;;;;;8.72;73.86;100099.75;4923656;29;20118;-94
2022/11/01 05:33:59;;;;;;;19.95;8.43;;;;;;;8.75;73.34;100107.31;4926599;29;20061;-93
2022/11/01 05:36:25;;;;;;;16.90;8.80;;;;;;;8.82;73.26;100115.22;4941821;29;20031;-92
2022/11/01 05:38:54;;;;;;;18.30;9.15;;;;;;;8.78;73.21;100114.91;4908916;29;20042;-92
2022/11/01 05:41:19;;;;;;;13.95;8.60;;;;;;;8.83;73.77;100123.06;4929734;29;20034;-92
2022/11/01 05:43:45;;;;;;;14.98;9.20;;;;;;;8.89;73.36;100124.78;4921619;29;20020;-92
2022/11/01 05:46:19;;;;;;;22.20;10.75;;;;;;;9.04;72.77;100140.38;4921985;29;20027;-96
2022/11/01 05:48:44;;;;;;;19.20;10.07;;;;;;;8.92;72.76;100099.31;4924561;29;20012;-93
2022/11/01 05:51:10;;;;;;;17.30;9.40;;;;;;;9.16;72.33;100116.16;4906541;29;20058;-93
2022/11/01 05:53:36;;;;;;;12.70;8.02;;;;;;;9.14;72.42;100122.84;4922285;29;20118;-92
2022/11/01 05:56:01;;;;;;;11.80;7.07;;;;;;;9.36;72.10;100145.28;4937066;29;20175;-91
2022/11/01 05:58:27;;;;;;;16.40;8.00;;;;;;;9.31;71.74;100126.38;4921426;29;20028;-92
2022/11/01 06:00:59;;;;;;;16.63;9.55;;;;;;;9.33;71.89;100132.31;4918414;29;20022;-92
2022/11/01 06:03:25;;;;;;;19.73;9.40;;;;;;;9.33;72.05;100136.88;4893481;29;20411;-91
2022/11/01 06:05:51;;;;;;;19.40;8.30;;;;;;;9.50;71.83;100149.31;4913982;29;20055;-95
2022/11/01 06:08:16;;;;;;;13.70;8.88;;;;;;;9.40;71.96;100133.00;4911338;29;20059;-93
2022/11/01 06:10:42;;;;;;;20.02;10.55;;;;;;;9.48;72.21;100138.00;4912164;29;20032;-94
2022/11/01 06:13:08;;;;;;;16.10;9.43;;;;;;;9.75;72.17;100168.78;4901129;29;20027;-92
2022/11/01 06:15:33;;;;;;;30.02;9.40;;;;;;;9.64;71.43;100124.78;4893594;29;20090;-93
2022/11/01 06:17:59;;;;;;;14.77;8.82;;;;;;;9.79;71.61;100137.66;4901009;29;20023;-93
2022/11/01 06:20:28;;;;;;;14.23;8.38;;;;;;;9.91;71.52;100152.66;4909178;29;20470;-92
2022/11/01 06:22:55;;;;;;;17.08;8.55;;;;;;;10.06;71.00;100140.50;4901547;29;20053;-91
2022/11/01 06:25:20;;;;;;;17.08;8.82;;;;;;;10.16;70.64;100139.84;4906614;29;20015;-91
2022/11/01 06:27:46;;;;;;;20.83;8.27;;;;;;;10.26;70.65;100142.69;4929389;29;20024;-93
2022/11/01 06:30:12;;;;;;;15.55;7.95;;;;;;;10.39;70.35;100138.88;4895222;29;20027;-92
2022/11/01 06:32:45;;;;;;;20.88;8.77;;;;;;;10.47;70.03;100141.13;4912405;29;20065;-95
2022/11/01 06:35:11;;;;;;;17.50;8.43;;;;;;;10.57;69.78;100146.66;4907904;29;20035;-91
2022/11/01 06:37:46;;;;;;;15.63;7.63;;;;;;;10.74;69.47;100153.88;4935330;29;20178;-90
2022/11/01 06:40:12;;;;;;;21.27;8.40;;;;;;;10.75;69.22;100145.56;4935902;29;20028;-90
2022/11/01 06:42:40;;;;;;;19.60;8.60;;;;;;;10.87;68.79;100135.47;4916659;29;20031;-92
2022/11/01 06:45:06;;;;;;;19.08;7.82;;;;;;;11.03;68.45;100136.44;4914691;29;20030;-92
2022/11/01 06:47:31;;;;;;;17.25;7.93;;;;;;;11.21;67.94;100132.59;4908812;29;20130;-92
2022/11/01 06:49:59;;;;;;;10.73;6.85;;;;;;;11.32;67.55;100142.41;4920017;29;20067;-92
2022/11/01 06:52:25;;;;;;;43.25;24.50;;;;;;;11.48;67.41;100143.38;4902024;29;21670;-91
2022/11/01 06:54:50;;;;;;;22.70;8.20;;;;;;;11.63;66.92;100148.09;4916109;29;20028;-91
2022/11/01 06:57:43;;;;;;;17.25;7.03;;;;;;;11.74;66.69;100138.19;4929028;29;20046;-96
2022/11/01 07:00:18;;;;;;;15.32;7.10;;;;;;;11.81;66.01;100129.91;4914151;29;20031;-96
2022/11/01 07:02:43;;;;;;;14.52;5.97;;;;;;;11.96;65.77;100146.25;4929960;29;20027;-96
2022/11/01 07:05:14;;;;;;;19.50;6.95;;;;;;;12.01;65.52;100135.47;4928699;29;20103;-96
2022/11/01 07:07:40;;;;;;;15.82;6.07;;;;;;;12.15;65.18;100137.72;5005094;23;20055;-95
2022/11/01 07:10:07;;;;;;;11.45;6.25;;;;;;;12.25;64.54;100141.31;4891248;29;20026;-95
2022/11/01 07:12:34;;;;;;;9.65;6.03;;;;;;;12.44;64.19;100140.88;4904529;29;20023;-95
2022/11/01 07:15:00;;;;;;;14.40;7.97;;;;;;;12.48;63.95;100129.28;4916810;29;20028;-95
2022/11/01 07:20:35;;;;;;;;;;;;;;;;;;;;;
2022/11/01 07:23:04;;;;;;;18.10;11.80;;;;;;;12.99;62.11;100135.97;4864894;29;20709;-96
2022/11/01 07:25:30;;;;;;;13.68;7.43;;;;;;;13.02;62.20;100135.47;4831801;29;20094;-93
2022/11/01 07:28:00;;;;;;;11.77;7.05;;;;;;;13.07;62.41;100130.06;4833428;29;20029;-93
2022/11/01 07:30:40;;;;;;;17.17;7.53;;;;;;;13.08;62.24;100137.91;4833251;29;20037;-93
2022/11/01 07:33:06;;;;;;;19.13;6.82;;;;;;;13.30;62.10;100143.13;4850693;29;20505;-93
2022/11/01 07:35:33;;;;;;;13.88;6.65;;;;;;;13.53;61.30;100151.84;4846389;29;20048;-92
2022/11/01 07:37:59;;;;;;;22.55;6.75;;;;;;;13.46;61.29;100124.22;4847108;29;20481;-90
2022/11/01 07:40:28;;;;;;;14.65;6.88;;;;;;;13.64;60.45;100128.28;4839121;29;20043;-91
2022/11/01 07:42:57;;;;;;;11.23;5.68;;;;;;;13.72;60.06;100138.59;4843735;29;20487;-91
2022/11/01 07:45:23;;;;;;;12.48;7.40;;;;;;;13.95;59.63;100146.16;4837362;29;20089;-93
2022/11/01 07:47:48;;;;;;;16.73;8.13;;;;;;;14.07;59.40;100137.75;4836872;29;20029;-94
2022/11/01 07:50:20;;;;;;;17.48;7.50;;;;;;;14.11;59.15;100135.28;4831070;29;20120;-93
2022/11/01 07:52:51;;;;;;;19.70;8.07;;;;;;;14.31;59.38;100145.28;4830778;29;20033;-94
2022/11/01 07:55:16;;;;;;;14.85;8.52;;;;;;;14.26;59.36;100132.56;4846893;29;20096;-92
2022/11/01 07:57:42;;;;;;;20.00;6.55;;;;;;;14.47;58.62;100137.94;4833874;29;20021;-94
2022/11/01 08:00:09;;;;;;;12.00;7.10;;;;;;;14.54;59.00;100133.84;4833155;29;20028;-94
2022/11/01 08:02:37;;;;;;;11.80;6.60;;;;;;;14.61;58.30;100122.75;4849179;29;20021;-94
2022/11/01 08:05:08;;;;;;;15.38;6.88;;;;;;;14.74;58.03;100124.84;4849180;29;20029;-94
2022/11/01 08:07:40;;;;;;;15.13;6.68;;;;;;;14.84;57.83;100120.50;4846493;29;20041;-96
2022/11/01 08:10:20;;;;;;;15.45;6.65;;;;;;;15.02;57.32;100129.88;4854600;29;20116;-96
2022/11/01 08:13:46;;;;;;;10.10;6.28;;;;;;;15.26;57.01;100140.88;4820511;29;20034;-96
2022/11/01 08:16:31;;;;;;;15.23;6.32;;;;;;;15.42;56.38;100144.28;4813480;29;20031;-96
2022/11/01 08:19:04;;;;;;;19.38;10.32;;;;;;;15.39;56.02;100118.53;4803261;29;20065;-96
2022/11/01 08:21:35;;;;;;;11.63;7.53;;;;;;;15.59;55.74;100138.50;4805505;29;20118;-96
2022/11/01 08:24:10;;;;;;;11.25;8.10;;;;;;;15.51;55.83;100110.84;4810694;29;20087;-96
2022/11/01 08:27:10;;;;;;;17.70;10.25;;;;;;;15.55;55.94;100103.75;4799071;29;20039;-96
2022/11/01 08:29:39;;;;;;;12.40;7.63;;;;;;;15.77;55.06;100116.09;4804045;29;20057;-96
2022/11/01 08:39:20;;;;;;;17.13;7.38;;;;;;;16.22;54.23;100121.41;4891101;29;20043;-93
2022/11/01 08:42:37;;;;;;;;;;;;;;;;;;;;;
2022/11/01 08:45:45;;;;;;;;;;;;;;;;;;;;;
2022/11/01 08:55:48;;;;;;;;;;;;;;;;;;;;;
2022/11/01 08:58:37;;;;;;;14.75;7.03;;;;;;;16.84;52.41;100084.25;4744949;30;20136;-96
2022/11/01 09:01:29;;;;;;;;;;;;;;;;;;;;;
2022/11/01 09:04:26;;;;;;;;;;;;;;;;;;;;;
2022/11/01 09:06:57;;;;;;;14.38;5.93;;;;;;;17.13;51.78;100091.47;4803747;29;20052;-95
2022/11/01 09:10:06;;;;;;;;;;;;;;;;;;;;;
2022/11/01 09:12:38;;;;;;;9.95;5.00;;;;;;;17.37;51.06;100078.59;4855190;29;20069;-95
2022/11/01 09:15:21;;;;;;;10.80;5.10;;;;;;;17.45;51.19;100081.72;4842941;29;20066;-96
2022/11/01 09:17:46;;;;;;;12.52;5.15;;;;;;;17.58;50.51;100081.78;4832132;29;20122;-92
2022/11/01 09:20:19;;;;;;;7.05;3.80;;;;;;;17.72;50.23;100076.41;4839119;29;20038;-95
2022/11/01 09:23:10;;;;;;;6.45;3.28;;;;;;;17.86;49.27;100073.72;4842105;29;20434;-95
2022/11/01 09:25:41;;;;;;;6.65;3.47;;;;;;;17.95;48.86;100082.00;4831321;29;20030;-95
2022/11/01 09:28:07;;;;;;;14.20;3.83;;;;;;;18.06;49.33;100077.19;4819461;29;20050;-95
2022/11/01 09:30:44;;;;;;;4.32;2.92;;;;;;;18.21;48.86;100074.16;4832093;29;20049;-95
2022/11/01 09:33:10;;;;;;;7.85;3.97;;;;;;;18.33;48.38;100069.03;4814021;29;20042;-92
2022/11/01 09:35:38;;;;;;;6.00;4.05;;;;;;;18.38;48.36;100071.63;4826097;29;20040;-95
2022/11/01 09:38:14;;;;;;;7.00;3.53;;;;;;;18.44;48.41;100069.63;4831815;29;20571;-96
2022/11/01 09:40:54;;;;;;;;;;;;;;;;;;;;;
2022/11/01 09:43:33;;;;;;;10.90;3.88;;;;;;;18.69;47.81;100059.28;4839082;29;20031;-96
2022/11/01 09:46:08;;;;;;;9.63;3.50;;;;;;;18.79;47.75;100061.84;4848779;29;20042;-96
2022/11/01 09:48:36;;;;;;;11.27;3.83;;;;;;;18.83;47.55;100054.66;4828359;29;20061;-94
2022/11/01 09:51:24;;;;;;;;;;;;;;;;;;;;;
2022/11/01 09:57:50;;;;;;;6.47;3.22;;;;;;;19.32;46.10;100060.34;4833167;29;20048;-96
2022/11/01 10:07:36;;;;;;;;;;;;;;;;;;;;;
2022/11/01 10:10:29;;;;;;;7.25;3.28;;;;;;;19.67;44.88;100057.84;4897140;29;20117;-96
2022/11/01 10:13:32;;;;;;;9.65;3.42;;;;;;;19.63;44.88;100035.00;4883475;29;20087;-96
2022/11/01 10:16:07;;;;;;;6.70;3.15;;;;;;;19.78;44.69;100042.84;4892371;29;20056;-96
2022/11/01 10:19:13;;;;;;;7.95;3.58;;;;;;;19.76;44.03;100023.22;4892567;29;20028;-95
2022/11/01 10:22:05;;;;;;;12.02;3.85;;;;;;;19.91;43.33;100017.34;4876193;29;20028;-96
2022/11/01 10:24:37;;;;;;;9.13;3.60;;;;;;;20.05;43.10;100013.72;4850088;29;20103;-92
2022/11/01 10:30:42;;;;;;;6.97;3.22;;;;;;;20.30;42.63;100017.66;4857776;29;20064;-93
2022/11/01 10:33:33;;;;;;;10.88;3.30;;;;;;;20.57;42.26;100033.78;4850484;29;20041;-93
2022/11/01 10:36:05;;;;;;;7.70;2.90;;;;;;;20.44;42.03;100015.59;4847610;29;20044;-94
2022/11/01 10:38:44;;;;;;;5.60;3.03;;;;;;;20.45;42.18;100011.72;4840086;29;20105;-95
2022/11/01 10:41:37;;;;;;;9.25;2.83;;;;;;;20.67;41.56;100021.78;4844877;29;20114;-94
2022/11/01 10:44:08;;;;;;;7.03;3.03;;;;;;;20.69;41.66;100015.97;4818013;29;20131;-93
2022/11/01 10:47:13;;;;;;;7.63;2.85;;;;;;;20.74;41.95;100015.81;4810611;29;20034;-95
2022/11/01 10:50:10;;;;;;;6.57;2.55;;;;;;;20.78;41.31;100008.56;4799081;29;20072;-96
2022/11/01 10:53:02;;;;;;;8.90;3.45;;;;;;;20.84;41.42;100009.22;4792949;30;20097;-95
2022/11/01 10:55:48;;;;;;;;;;;;;;;21.02;40.75;100018.22;4780591;29;20042;-92
2022/11/01 10:58:44;;;;;;;5.63;2.28;;;;;;;20.91;40.70;100012.28;4814884;29;20434;-94
2022/11/01 11:01:44;;;;;;;7.95;2.67;;;;;;;20.83;40.60;99997.47;4817082;29;20027;-94
2022/11/01 11:04:32;;;;;;;5.43;2.65;;;;;;;20.81;40.35;99988.75;4752800;30;20119;-95
2022/11/01 11:06:57;;;;;;;5.68;2.55;;;;;;;20.91;40.48;99993.91;4771845;30;20059;-93
2022/11/01 11:09:33;;;;;;;5.22;2.22;;;;;;;20.97;40.39;100000.03;4772657;30;20039;-91
2022/11/01 11:12:24;;;;;;;5.28;2.67;;;;;;;21.12;40.39;100010.50;4745883;30;20044;-96
2022/11/01 11:15:10;;;;;;;10.00;3.08;;;;;;;21.01;40.21;99984.59;4740347;30;20047;-93
2022/11/01 11:17:48;;;;;;;7.32;2.95;;;;;;;21.09;40.01;99986.50;4754130;30;20048;-92
2022/11/01 11:20:33;;;;;;;;;;;;;;;;;;;;;
2022/11/01 11:23:02;;;;;;;7.03;2.30;;;;;;;21.09;39.73;99981.03;4794970;29;20086;-96
2022/11/01 11:26:09;;;;;;;9.45;2.67;;;;;;;21.16;39.48;100000.50;4797227;30;20115;-94
2022/11/01 11:33:00;;;;;;;5.22;2.60;;;;;;;21.34;38.88;99995.81;4788917;30;20043;-94
2022/11/01 11:35:26;;;;;;;6.65;2.40;;;;;;;21.21;39.17;99977.63;4823956;29;20063;-93
2022/11/01 11:37:57;;;;;;;10.32;2.65;;;;;;;21.40;38.75;99993.72;4831941;29;20047;-92
2022/11/01 11:40:39;;;;;;;5.70;2.40;;;;;;;21.40;39.13;99986.28;4822139;29;20046;-96
2022/11/01 11:43:30;;;;;;;7.35;2.42;;;;;;;21.43;39.12;99987.59;4844128;29;20072;-95
2022/11/01 11:46:22;;;;;;;8.38;2.97;;;;;;;21.46;39.29;99980.66;4888928;29;20040;-96
2022/11/01 11:49:27;;;;;;;5.03;2.50;;;;;;;21.39;38.96;99965.53;4877756;29;20124;-93
2022/11/01 11:52:03;;;;;;;7.90;2.53;;;;;;;21.48;38.47;99968.25;4830729;29;20040;-94
2022/11/01 11:54:37;;;;;;;7.20;2.80;;;;;;;21.58;38.58;99975.31;4869593;29;20053;-96
2022/11/01 11:57:25;;;;;;;4.68;2.72;;;;;;;21.67;38.48;99978.84;4891886;29;20035;-92
2022/11/01 12:00:14;;;;;;;10.40;2.90;;;;;;;21.67;38.66;99975.28;4895744;29;20060;-94
2022/11/01 12:03:14;;;;;;;11.90;3.85;;;;;;;21.74;38.32;99989.28;4894356;29;20067;-96
2022/11/01 12:10:04;;;;;;;;;;;;;;;;;;;;;
2022/11/01 12:25:46;;;;;;;9.85;2.53;;;;;;;21.67;37.71;99967.06;4940709;29;20109;-96
2022/11/01 12:31:56;;;;;;;8.10;2.67;;;;;;;21.57;37.85;99949.03;4916114;29;20487;-94
2022/11/01 12:34:33;;;;;;;;;;;;;;;;;;;;;
2022/11/01 12:51:22;;;;;;;;;;;;;;;;;;;;;
2022/11/01 12:54:18;;;;;;;7.63;3.40;;;;;;;21.58;37.77;99940.50;4830316;29;20065;-96
2022/11/01 12:57:11;;;;;;;7.30;2.60;;;;;;;21.57;38.11;99936.13;4848126;29;20065;-96
2022/11/01 13:00:08;;;;;;;;;;;;;;;;;;;;;
2022/11/01 13:08:51;;;;;;;9.93;3.08;;;;;;;21.73;37.74;99946.56;4950442;23;20079;-96
2022/11/01 13:11:46;;;;;;;7.32;2.75;;;;;;;21.68;37.49;99930.28;4937392;29;20032;-95
2022/11/01 13:14:53;;;;;;;;;;;;;;;;;;;;;
2022/11/01 13:18:50;;;;;;;;;;;;;;;;;;;;;
2022/11/01 13:28:50;;;;;;;5.80;2.20;;;;;;;21.71;37.25;99957.06;4918052;29;20055;-93
2022/11/01 13:31:52;;;;;;;6.57;2.73;;;;;;;21.75;37.10;99947.84;4892146;29;20028;-93
2022/11/01 13:34:35;;;;;;;;;;;;;;;21.79;36.87;99948.00;4906216;29;20068;-93
2022/11/01 13:37:39;;;;;;;5.80;2.60;;;;;;;21.76;37.28;99940.41;4897746;29;19915;-96
2022/11/01 13:40:20;;;;;;;7.45;3.10;;;;;;;21.72;36.51;99944.94;4923143;29;20032;-96
2022/11/01 13:43:39;;;;;;;7.40;3.10;;;;;;;21.54;36.71;99923.09;4925314;29;20091;-95
2022/11/01 13:46:43;;;;;;;;;;;;;;;;;;;;;
2022/11/01 13:49:33;;;;;;;6.10;3.10;;;;;;;21.64;36.94;99938.34;4901810;29;20064;-96
2022/11/01 13:52:32;;;;;;;;;;;;;;;;;;;;;
2022/11/01 13:55:46;;;;;;;9.48;2.65;;;;;;;21.57;35.67;99943.56;4912358;29;20116;-96
2022/11/01 13:58:41;;;;;;;10.13;3.08;;;;;;;21.46;35.53;99914.91;4923875;29;20032;-94
2022/11/01 14:01:56;;;;;;;;;;;;;;;;;;;;;
2022/11/01 14:10:51;;;;;;;8.35;2.80;;;;;;;21.62;35.23;99937.09;4750852;30;20051;-96